Time;durP1;ratioP1;P1;durP2;ratioP2;P2;SDS_P1;SDS_P2;PMS_P1;PMS_P2;Temp;Humidity;BMP_temperature;BMP_pressure;BME280_temperature;BME280_humidity;BME280_pressure;Samples;Min_cycle;Max_cycle;Signal;HPM_P1;HPM_P2
2022/12/03 00:01:14;;;;;;;39.60;17.20;;;;;;;-9.37;59.93;102619.34;5034040;28;20397;-52
2022/12/03 00:03:40;;;;;;;38.35;18.33;;;;;;;-9.41;59.98;102617.41;5032408;28;20036;-48
2022/12/03 00:06:05;;;;;;;42.80;18.90;;;;;;;-9.32;59.71;102626.47;5040735;28;20032;-49
2022/12/03 00:08:31;;;;;;;43.70;17.58;;;;;;;-9.35;59.68;102621.13;5050869;28;20119;-51
2022/12/03 00:10:56;;;;;;;37.17;17.45;;;;;;;-9.31;59.83;102629.13;5047234;28;20490;-51
2022/12/03 00:13:21;;;;;;;35.67;16.58;;;;;;;-9.38;59.79;102622.78;5052904;28;20025;-55
2022/12/03 00:15:47;;;;;;;36.83;16.85;;;;;;;-9.37;59.64;102624.56;5038119;28;20043;-49
2022/12/03 00:18:12;;;;;;;36.95;17.20;;;;;;;-9.40;59.96;102621.81;5033407;28;20220;-49
2022/12/03 00:20:38;;;;;;;36.03;16.80;;;;;;;-9.34;60.08;102620.31;5033474;28;20429;-51
2022/12/03 00:23:03;;;;;;;33.25;15.65;;;;;;;-9.28;59.27;102623.19;5033834;28;20022;-53
2022/12/03 00:25:28;;;;;;;35.22;14.25;;;;;;;-9.19;58.92;102627.91;5033370;28;20029;-50
2022/12/03 00:27:54;;;;;;;37.15;17.17;;;;;;;-9.25;59.04;102628.50;5032036;28;20033;-52
2022/12/03 00:30:19;;;;;;;34.00;17.15;;;;;;;-9.50;59.81;102632.56;5035094;28;20300;-52
2022/12/03 00:32:45;;;;;;;35.15;14.98;;;;;;;-9.51;60.06;102638.56;5042082;28;20513;-48
2022/12/03 00:35:10;;;;;;;38.83;16.42;;;;;;;-9.37;59.17;102634.03;5051798;28;20033;-46
2022/12/03 00:37:36;;;;;;;35.60;16.15;;;;;;;-9.50;59.38;102621.31;5053316;28;20135;-51
2022/12/03 00:40:04;;;;;;;38.28;17.40;;;;;;;-9.58;59.65;102633.91;5052857;28;20029;-52
2022/12/03 00:42:29;;;;;;;38.35;17.50;;;;;;;-9.56;59.94;102627.09;5043867;28;20130;-51
2022/12/03 00:44:55;;;;;;;40.72;18.25;;;;;;;-9.61;59.94;102632.03;5033079;28;20507;-50
2022/12/03 00:47:20;;;;;;;40.55;18.10;;;;;;;-9.56;59.60;102627.97;5032888;28;20546;-50
2022/12/03 00:49:46;;;;;;;39.60;17.55;;;;;;;-9.57;59.79;102626.19;5032753;28;20034;-52
2022/12/03 00:52:11;;;;;;;37.40;17.30;;;;;;;-9.66;60.20;102623.16;5051793;28;20037;-51
2022/12/03 00:54:37;;;;;;;36.55;17.17;;;;;;;-9.73;60.35;102636.66;5052445;28;20108;-52
2022/12/03 00:57:02;;;;;;;40.63;16.85;;;;;;;-9.65;60.45;102637.91;5052159;28;20352;-54
2022/12/03 00:59:28;;;;;;;36.65;17.40;;;;;;;-9.58;60.40;102639.09;5052666;28;20431;-50
2022/12/03 01:01:53;;;;;;;36.50;16.92;;;;;;;-9.57;60.31;102635.69;5052280;28;20029;-51
2022/12/03 01:04:19;;;;;;;34.53;17.08;;;;;;;-9.49;59.60;102633.47;5052232;28;20106;-51
2022/12/03 01:06:44;;;;;;;35.95;15.93;;;;;;;-9.32;59.22;102642.91;5051639;28;20028;-52
2022/12/03 01:09:09;;;;;;;38.35;18.33;;;;;;;-9.49;59.65;102649.03;5043400;28;20038;-53
2022/12/03 01:11:38;;;;;;;42.55;18.75;;;;;;;-9.47;59.61;102647.38;5032848;28;20034;-49
2022/12/03 01:14:05;;;;;;;37.50;17.92;;;;;;;-9.58;59.77;102649.47;5050587;28;20098;-53
2022/12/03 01:16:30;;;;;;;42.92;17.95;;;;;;;-9.83;60.14;102622.34;5052505;28;20044;-50
2022/12/03 01:18:56;;;;;;;41.72;17.80;;;;;;;-9.51;59.44;102656.72;5051417;28;20025;-51
2022/12/03 01:21:21;;;;;;;41.03;18.17;;;;;;;-9.64;59.71;102651.75;5052163;28;20105;-54
2022/12/03 01:23:47;;;;;;;32.60;12.85;;;;;;;-9.69;60.22;102652.41;5052235;28;20068;-49
2022/12/03 01:26:12;;;;;;;38.70;16.13;;;;;;;-9.66;59.83;102647.38;5052652;28;20029;-50
2022/12/03 01:28:37;;;;;;;40.45;17.55;;;;;;;-9.75;59.91;102666.81;5050813;28;20029;-51
2022/12/03 01:33:47;;;;;;;39.95;18.17;;;;;;;-9.81;60.36;102646.66;5052637;28;20406;-53
2022/12/03 01:36:12;;;;;;;38.47;17.52;;;;;;;-9.77;59.82;102658.03;5038990;28;20041;-50
2022/12/03 01:38:38;;;;;;;37.63;16.98;;;;;;;-9.80;59.89;102658.78;5032464;28;20040;-51
2022/12/03 01:41:03;;;;;;;37.55;16.23;;;;;;;-9.85;59.82;102655.97;5035168;28;20029;-52
2022/12/03 01:43:29;;;;;;;36.92;16.70;;;;;;;-9.95;59.75;102658.94;5040283;28;20040;-51
2022/12/03 01:45:54;;;;;;;39.92;17.98;;;;;;;-10.07;60.04;102647.94;5045360;28;20352;-54
2022/12/03 01:48:20;;;;;;;40.47;17.40;;;;;;;-9.97;59.91;102645.88;5035894;28;20357;-49
2022/12/03 01:50:45;;;;;;;26.02;11.15;;;;;;;-10.09;60.25;102671.22;5035735;28;20033;-49
2022/12/03 01:53:17;;;;;;;41.45;16.20;;;;;;;-9.99;59.68;102668.25;5036268;28;20045;-53
2022/12/03 01:55:42;;;;;;;35.50;16.33;;;;;;;-10.16;59.97;102663.91;5036369;28;20032;-51
2022/12/03 01:58:11;;;;;;;32.38;14.25;;;;;;;-10.23;59.95;102668.78;5041046;28;20025;-49
2022/12/03 02:00:37;;;;;;;38.13;17.15;;;;;;;-10.31;60.24;102664.03;5055539;28;20109;-50
2022/12/03 02:03:11;;;;;;;32.53;15.27;;;;;;;-10.38;60.56;102668.91;5055921;28;20167;-51
2022/12/03 02:05:37;;;;;;;18.85;8.25;;;;;;;-10.25;60.22;102665.22;5046259;28;20380;-49
2022/12/03 02:08:31;;;;;;;40.60;14.82;;;;;;;-10.15;60.07;102668.28;5035766;28;20037;-50
2022/12/03 02:11:07;;;;;;;33.45;13.50;;;;;;;-10.24;59.79;102666.13;5035423;28;20531;-50
2022/12/03 02:13:59;;;;;;;33.05;14.73;;;;;;;-10.37;60.15;102669.78;5021536;28;20356;-52
2022/12/03 02:16:24;;;;;;;38.42;15.00;;;;;;;-10.40;60.24;102682.59;5040229;28;20029;-50
2022/12/03 02:18:50;;;;;;;39.15;16.75;;;;;;;-10.63;60.53;102664.16;5055510;28;20082;-49
2022/12/03 02:21:25;;;;;;;33.90;13.13;;;;;;;-10.45;60.61;102677.19;5046058;28;20064;-51
2022/12/03 02:24:04;;;;;;;41.30;16.65;;;;;;;-10.55;60.84;102669.75;5046613;28;20038;-48
2022/12/03 02:26:30;;;;;;;34.88;13.95;;;;;;;-10.54;60.71;102693.16;5055145;28;20036;-47
2022/12/03 02:28:56;;;;;;;42.33;15.63;;;;;;;-10.67;61.19;102670.91;5055263;28;20033;-50
2022/12/03 02:31:22;;;;;;;37.63;15.63;;;;;;;-10.72;60.73;102646.47;5055323;28;20463;-51
2022/12/03 02:33:47;;;;;;;27.27;12.15;;;;;;;-10.49;60.75;102669.19;5054966;28;20082;-54
2022/12/03 02:36:13;;;;;;;39.55;16.17;;;;;;;-10.73;61.03;102665.41;5037363;28;20030;-55
2022/12/03 02:38:40;;;;;;;40.80;16.40;;;;;;;-10.77;61.42;102678.97;5035310;28;20049;-52
2022/12/03 02:41:09;;;;;;;36.88;15.65;;;;;;;-10.71;61.50;102673.22;5034941;28;20044;-51
2022/12/03 02:43:35;;;;;;;35.47;14.73;;;;;;;-10.63;61.25;102668.47;5039720;28;20175;-52
2022/12/03 02:46:03;;;;;;;35.53;14.45;;;;;;;-10.64;60.67;102680.50;5054613;28;20104;-52
2022/12/03 02:48:33;;;;;;;39.03;16.77;;;;;;;-10.67;61.41;102675.16;5055099;28;20060;-50
2022/12/03 02:51:03;;;;;;;39.35;15.88;;;;;;;-10.70;60.96;102673.31;5053713;28;20415;-47
2022/12/03 02:53:32;;;;;;;34.47;14.18;;;;;;;-10.72;61.19;102671.44;5054455;28;20032;-49
2022/12/03 02:56:00;;;;;;;37.83;15.57;;;;;;;-10.86;61.31;102668.13;5054135;28;20032;-49
2022/12/03 02:58:30;;;;;;;38.13;16.00;;;;;;;-10.98;61.79;102661.47;5054711;28;20032;-50
2022/12/03 03:00:56;;;;;;;39.33;16.33;;;;;;;-10.93;61.88;102686.75;5054117;28;20033;-48
2022/12/03 03:03:26;;;;;;;34.25;13.48;;;;;;;-10.92;62.11;102681.63;5033693;28;20397;-49
2022/12/03 03:05:52;;;;;;;36.08;14.43;;;;;;;-10.80;61.84;102685.69;5033406;28;20101;-48
2022/12/03 03:08:18;;;;;;;38.45;16.67;;;;;;;-10.91;61.96;102678.22;5054324;28;20047;-50
2022/12/03 03:10:46;;;;;;;28.25;12.18;;;;;;;-10.65;61.53;102688.22;5054850;28;20174;-48
2022/12/03 03:13:14;;;;;;;37.63;13.85;;;;;;;-10.72;61.30;102692.16;5055013;28;20036;-51
2022/12/03 03:15:40;;;;;;;34.03;14.40;;;;;;;-11.16;61.58;102612.22;5054305;28;20522;-50
2022/12/03 03:18:07;;;;;;;41.80;16.35;;;;;;;-10.64;61.25;102695.16;5053431;28;20036;-49
2022/12/03 03:20:33;;;;;;;33.08;14.10;;;;;;;-10.58;60.87;102700.66;5041007;28;20037;-51
2022/12/03 03:23:16;;;;;;;38.72;15.85;;;;;;;-10.91;60.98;102651.47;5034429;28;20357;-51
2022/12/03 03:25:45;;;;;;;31.30;13.35;;;;;;;-10.64;60.67;102696.03;5034762;28;20029;-53
2022/12/03 03:28:13;;;;;;;37.00;15.20;;;;;;;-10.74;61.13;102707.59;5034540;28;20452;-50
2022/12/03 03:30:40;;;;;;;35.88;14.70;;;;;;;-10.78;61.25;102702.19;5050494;28;20040;-50
2022/12/03 03:33:06;;;;;;;31.65;11.48;;;;;;;-10.88;61.51;102706.00;5053840;28;20037;-51
2022/12/03 03:35:31;;;;;;;36.63;16.05;;;;;;;-10.76;60.90;102698.88;5054150;28;20462;-52
2022/12/03 03:37:57;;;;;;;29.95;12.98;;;;;;;-10.73;61.09;102709.41;5047592;28;20153;-49
2022/12/03 03:40:24;;;;;;;37.55;16.40;;;;;;;-10.84;61.57;102708.84;5034084;28;20025;-51
2022/12/03 03:42:50;;;;;;;38.80;13.85;;;;;;;-10.80;61.57;102691.75;5032924;28;20116;-50
2022/12/03 03:45:16;;;;;;;23.17;9.10;;;;;;;-10.71;61.16;102717.25;5034298;28;20449;-53
2022/12/03 03:47:42;;;;;;;38.45;14.63;;;;;;;-10.56;60.64;102712.91;5037099;28;20462;-49
2022/12/03 03:50:11;;;;;;;35.95;15.00;;;;;;;-10.63;60.59;102708.19;5054013;28;20116;-48
2022/12/03 03:52:38;;;;;;;32.90;11.50;;;;;;;-10.80;61.25;102703.81;5044608;28;20033;-49
2022/12/03 03:55:05;;;;;;;18.98;8.63;;;;;;;-10.72;61.27;102705.09;5032704;28;20108;-48
2022/12/03 03:57:30;;;;;;;36.65;15.63;;;;;;;-10.77;61.20;102711.75;5050075;28;20032;-50
2022/12/03 03:59:57;;;;;;;34.45;13.85;;;;;;;-10.83;61.28;102713.19;5053650;28;20093;-49
2022/12/03 04:02:25;;;;;;;33.95;14.32;;;;;;;-10.71;61.39;102701.72;5053458;28;20053;-48
2022/12/03 04:04:51;;;;;;;38.85;16.13;;;;;;;-10.70;60.70;102708.66;5051578;28;20029;-50
2022/12/03 04:07:16;;;;;;;28.13;11.98;;;;;;;-10.64;60.41;102716.75;5053381;28;20076;-49
2022/12/03 04:09:43;;;;;;;29.73;12.10;;;;;;;-10.76;60.62;102721.28;5052982;28;20497;-50
2022/12/03 04:14:54;;;;;;;34.80;14.02;;;;;;;-10.79;60.45;102722.00;5042851;28;20028;-50
2022/12/03 04:17:19;;;;;;;30.30;12.93;;;;;;;-10.80;60.34;102724.53;5033328;28;20029;-50
2022/12/03 04:19:44;;;;;;;41.30;16.45;;;;;;;-11.07;60.58;102715.31;5032378;28;20086;-50
2022/12/03 04:28:47;;;;;;;34.65;15.48;;;;;;;-11.09;61.15;102722.13;5032934;28;20026;-52
2022/12/03 04:30:23;;;;;;;38.75;16.45;;;;;;;-10.96;60.29;102728.84;5053072;28;20112;-60
2022/12/03 04:35:41;;;;;;;30.48;12.07;;;;;;;-10.84;60.89;102755.44;5033931;28;20116;-46
2022/12/03 04:38:07;;;;;;;27.25;11.18;;;;;;;-10.87;61.56;102739.69;5032836;28;20040;-52
2022/12/03 04:43:16;;;;;;;28.73;9.65;;;;;;;-10.99;62.68;102758.03;5042907;28;20032;-50
2022/12/03 04:45:42;;;;;;;30.23;12.00;;;;;;;-10.98;62.36;102746.00;5052803;28;20390;-47
2022/12/03 04:48:07;;;;;;;38.05;15.05;;;;;;;-11.10;62.86;102743.63;5036101;28;20084;-50
2022/12/03 04:50:33;;;;;;;26.55;10.88;;;;;;;-11.05;62.63;102762.88;5033043;28;20040;-53
2022/12/03 04:52:58;;;;;;;30.15;12.38;;;;;;;-11.11;62.22;102759.94;5032780;28;20048;-50
2022/12/03 04:55:24;;;;;;;38.22;15.10;;;;;;;-11.15;62.07;102755.41;5035924;28;20025;-64
2022/12/03 04:57:49;;;;;;;23.80;8.95;;;;;;;-11.20;62.38;102774.97;5051894;28;20091;-55
2022/12/03 05:00:15;;;;;;;35.50;12.65;;;;;;;-11.50;62.24;102723.25;5045149;28;20052;-52
2022/12/03 05:02:40;;;;;;;28.05;11.00;;;;;;;-11.23;61.76;102778.25;5049088;28;20098;-55
2022/12/03 05:05:06;;;;;;;39.78;15.05;;;;;;;-11.45;62.28;102761.50;5040273;28;20022;-51
2022/12/03 05:07:31;;;;;;;35.15;13.05;;;;;;;-11.24;61.91;102771.31;5047375;28;20051;-56
2022/12/03 05:09:57;;;;;;;30.38;13.23;;;;;;;-11.55;62.03;102756.63;5041862;28;20425;-54
2022/12/03 05:12:22;;;;;;;35.03;15.88;;;;;;;-11.43;62.00;102767.66;5045541;28;20029;-57
2022/12/03 05:14:48;;;;;;;33.50;12.43;;;;;;;-11.42;61.85;102771.16;5048631;28;20104;-64
2022/12/03 05:17:13;;;;;;;36.80;14.55;;;;;;;-11.39;62.08;102766.16;5039210;28;20337;-56
2022/12/03 05:22:22;;;;;;;35.30;13.68;;;;;;;-11.43;62.34;102787.47;5040219;28;20033;-60
2022/12/03 05:24:48;;;;;;;34.70;13.70;;;;;;;-11.57;62.50;102753.94;5050478;28;20036;-54
2022/12/03 05:27:13;;;;;;;41.53;16.50;;;;;;;-11.49;61.95;102754.38;5038809;28;20048;-51
2022/12/03 05:29:39;;;;;;;29.77;10.02;;;;;;;-11.13;61.39;102790.03;5050488;28;20064;-54
2022/12/03 05:32:04;;;;;;;35.75;14.13;;;;;;;-11.26;61.45;102791.03;5058813;28;20029;-53
2022/12/03 05:34:30;;;;;;;37.70;12.85;;;;;;;-11.45;62.39;102782.19;5058918;28;20029;-55
2022/12/03 05:36:55;;;;;;;36.95;13.68;;;;;;;-11.16;61.35;102788.13;5059212;28;20029;-49
2022/12/03 05:39:20;;;;;;;33.97;14.30;;;;;;;-11.18;61.21;102807.84;5055836;28;20407;-57
2022/12/03 05:44:30;;;;;;;37.42;13.02;;;;;;;-11.40;60.67;102801.44;5058827;28;20025;-51
2022/12/03 05:46:56;;;;;;;35.92;14.98;;;;;;;-11.64;61.61;102792.28;5058105;28;20147;-52
2022/12/03 05:49:21;;;;;;;34.85;14.43;;;;;;;-11.59;61.55;102788.25;5058704;28;20048;-54
2022/12/03 05:51:46;;;;;;;32.75;11.98;;;;;;;-11.41;61.46;102801.38;5058263;28;20514;-53
2022/12/03 05:54:12;;;;;;;39.22;15.82;;;;;;;-11.43;61.78;102790.94;5058607;28;20032;-53
2022/12/03 05:56:37;;;;;;;37.70;14.23;;;;;;;-11.39;62.00;102799.78;5058557;28;20083;-62
2022/12/03 05:59:03;;;;;;;33.72;12.93;;;;;;;-11.17;61.57;102801.00;5057001;28;20040;-64
2022/12/03 06:01:28;;;;;;;35.28;13.43;;;;;;;-11.07;61.62;102794.66;5056992;28;20470;-61
2022/12/03 06:03:53;;;;;;;31.88;12.63;;;;;;;-10.92;61.67;102811.03;5057831;28;20471;-62
2022/12/03 06:06:19;;;;;;;33.05;12.98;;;;;;;-10.83;61.49;102796.03;5057270;28;20037;-56
2022/12/03 06:08:44;;;;;;;33.58;12.70;;;;;;;-10.71;61.38;102800.09;5043370;28;20061;-52
2022/12/03 06:11:10;;;;;;;35.65;13.20;;;;;;;-10.53;60.67;102807.97;5048160;28;20040;-53
2022/12/03 06:13:35;;;;;;;30.77;12.70;;;;;;;-10.53;61.01;102795.00;5056422;28;20061;-54
2022/12/03 06:16:01;;;;;;;29.42;11.80;;;;;;;-10.40;61.08;102793.97;5038556;28;20041;-52
2022/12/03 06:18:26;;;;;;;37.35;14.60;;;;;;;-10.18;59.95;102795.09;5057320;28;20448;-54
2022/12/03 06:20:51;;;;;;;32.10;12.88;;;;;;;-10.17;59.66;102792.59;5049629;28;20489;-53
2022/12/03 06:23:17;;;;;;;30.48;11.65;;;;;;;-10.16;59.18;102788.28;5041601;28;20044;-50
2022/12/03 06:25:42;;;;;;;34.28;13.65;;;;;;;-10.34;60.53;102781.34;5036741;28;20047;-53
2022/12/03 06:28:08;;;;;;;27.08;10.05;;;;;;;-10.05;59.78;102794.94;5050699;28;20699;-56
2022/12/03 06:30:34;;;;;;;33.90;13.43;;;;;;;-10.06;59.47;102798.34;5052945;28;20095;-55
2022/12/03 06:33:00;;;;;;;34.00;13.15;;;;;;;-10.06;59.77;102792.25;5041549;28;20037;-50
2022/12/03 06:35:26;;;;;;;31.83;11.75;;;;;;;-9.96;60.00;102797.13;5035170;28;20041;-55
2022/12/03 06:37:51;;;;;;;38.95;13.25;;;;;;;-9.87;60.48;102792.41;5037420;28;20032;-62
2022/12/03 06:40:17;;;;;;;34.67;13.45;;;;;;;-9.66;59.43;102790.00;5044743;28;20586;-55
2022/12/03 06:42:42;;;;;;;34.47;12.85;;;;;;;-9.43;59.08;102786.81;5053979;28;20039;-55
2022/12/03 06:45:08;;;;;;;32.97;11.65;;;;;;;-9.22;58.44;102789.56;5054404;28;20063;-57
2022/12/03 06:47:34;;;;;;;37.03;13.75;;;;;;;-9.27;58.25;102791.03;5049166;28;20055;-59
2022/12/03 06:49:59;;;;;;;37.22;15.73;;;;;;;-9.28;58.72;102784.97;5042441;28;20368;-55
2022/12/03 06:52:24;;;;;;;44.78;14.68;;;;;;;-9.21;58.84;102786.16;5034651;28;20022;-55
2022/12/03 06:54:50;;;;;;;26.35;11.48;;;;;;;-8.98;58.39;102779.50;5052401;28;20059;-56
2022/12/03 06:57:15;;;;;;;32.15;13.63;;;;;;;-8.85;58.48;102782.66;5053451;28;20103;-57
2022/12/03 06:59:41;;;;;;;27.65;10.57;;;;;;;-8.61;56.75;102789.81;5052560;28;20139;-57
2022/12/03 07:02:06;;;;;;;39.80;14.98;;;;;;;-8.76;57.43;102771.81;5034755;28;20474;-56
2022/12/03 07:04:32;;;;;;;35.78;13.75;;;;;;;-8.59;58.11;102760.50;5041386;28;20049;-57
2022/12/03 07:06:57;;;;;;;37.83;13.43;;;;;;;-8.16;56.82;102784.03;5050841;28;20109;-54
2022/12/03 07:09:23;;;;;;;32.83;14.23;;;;;;;-8.08;56.02;102752.34;5054271;28;20021;-55
2022/12/03 07:11:48;;;;;;;33.90;14.05;;;;;;;-7.71;56.35;102773.84;5054109;28;20037;-52
2022/12/03 07:14:14;;;;;;;33.50;14.70;;;;;;;-7.38;55.76;102773.47;5054094;28;20098;-52
2022/12/03 07:16:41;;;;;;;32.08;13.48;;;;;;;-7.19;54.97;102748.19;5053818;28;20033;-55
2022/12/03 07:19:08;;;;;;;32.70;11.77;;;;;;;-6.69;53.91;102763.16;5053975;28;20232;-54
2022/12/03 07:21:33;;;;;;;28.50;12.20;;;;;;;-6.75;53.73;102782.03;5052406;28;20059;-52
2022/12/03 07:23:59;;;;;;;34.05;14.02;;;;;;;-7.15;54.25;102746.59;5051864;28;20036;-52
2022/12/03 07:26:25;;;;;;;31.02;12.93;;;;;;;-7.22;54.92;102784.53;5044777;28;20026;-56
2022/12/03 07:28:50;;;;;;;35.40;15.73;;;;;;;-7.29;55.54;102772.06;5041199;28;20119;-55
2022/12/03 07:31:16;;;;;;;34.40;14.07;;;;;;;-7.17;55.40;102784.69;5049826;28;20035;-53
2022/12/03 07:33:41;;;;;;;34.08;13.20;;;;;;;-6.99;55.46;102776.72;5050058;28;20055;-53
2022/12/03 07:36:07;;;;;;;27.17;10.55;;;;;;;-6.71;55.38;102780.44;5039741;28;20529;-54
2022/12/03 07:38:33;;;;;;;34.60;14.00;;;;;;;-6.69;55.27;102784.00;5032838;28;20369;-52
2022/12/03 07:40:58;;;;;;;20.25;8.77;;;;;;;-6.54;54.80;102770.66;5033322;28;20459;-54
2022/12/03 07:43:24;;;;;;;32.05;13.45;;;;;;;-6.70;55.75;102779.63;5016540;28;20456;-56
2022/12/03 07:45:49;;;;;;;31.95;13.52;;;;;;;-6.77;55.08;102770.66;5033262;28;20033;-57
2022/12/03 07:48:15;;;;;;;36.15;14.20;;;;;;;-7.04;55.71;102739.19;5039661;28;20056;-59
2022/12/03 07:50:40;;;;;;;33.58;13.02;;;;;;;-6.97;56.31;102768.16;5038679;28;20068;-56
2022/12/03 07:53:06;;;;;;;28.08;11.73;;;;;;;-6.67;55.74;102778.00;5033431;28;20025;-54
2022/12/03 07:55:31;;;;;;;32.53;11.98;;;;;;;-6.72;55.84;102776.06;5052970;28;20033;-56
2022/12/03 07:57:56;;;;;;;34.67;14.07;;;;;;;-6.62;55.55;102767.75;5052491;28;20032;-55
2022/12/03 08:00:22;;;;;;;29.02;12.23;;;;;;;-6.69;56.50;102770.97;5053003;28;20036;-56
2022/12/03 08:02:47;;;;;;;32.05;13.63;;;;;;;-6.54;55.82;102758.50;5052877;28;20032;-55
2022/12/03 08:05:13;;;;;;;34.00;13.63;;;;;;;-6.45;56.05;102771.00;5052555;28;20075;-52
2022/12/03 08:07:38;;;;;;;30.50;13.85;;;;;;;-6.44;56.30;102761.47;5032151;28;20036;-56
2022/12/03 08:10:05;;;;;;;30.92;13.57;;;;;;;-6.39;55.84;102760.81;5032902;28;20454;-53
2022/12/03 08:12:40;;;;;;;34.33;14.75;;;;;;;-6.43;55.88;102763.25;5032573;28;20103;-55
2022/12/03 08:15:09;;;;;;;;;;;;;;;-6.23;56.37;102763.97;5032318;28;20368;-55
2022/12/03 08:17:35;;;;;;;35.28;14.32;;;;;;;-6.32;56.42;102761.91;5032625;28;20041;-52
2022/12/03 08:20:04;;;;;;;36.35;15.98;;;;;;;-6.18;56.58;102764.16;5033090;28;20860;-57
2022/12/03 08:22:30;;;;;;;33.15;12.82;;;;;;;-5.99;55.46;102752.59;5032858;28;20033;-60
2022/12/03 08:24:57;;;;;;;38.30;16.50;;;;;;;-6.33;55.69;102721.03;5033931;28;20029;-57
2022/12/03 08:27:23;;;;;;;37.58;15.88;;;;;;;-6.06;55.25;102756.75;5015356;28;20053;-53
2022/12/03 08:29:48;;;;;;;36.90;15.18;;;;;;;-6.26;55.76;102762.16;5032086;28;20113;-52
2022/12/03 08:32:14;;;;;;;40.45;15.85;;;;;;;-6.40;55.47;102771.16;5050680;28;20036;-52
2022/12/03 08:34:42;;;;;;;38.47;16.08;;;;;;;-6.65;56.23;102729.41;5047790;28;20024;-54
2022/12/03 08:37:17;;;;;;;38.70;15.75;;;;;;;-6.59;56.27;102728.78;5038306;28;20255;-53
2022/12/03 08:39:45;;;;;;;35.63;15.43;;;;;;;-6.41;56.07;102756.38;5052070;28;20029;-53
2022/12/03 08:45:28;;;;;;;37.72;14.55;;;;;;;-6.16;55.92;102759.88;5036850;28;20044;-53
2022/12/03 08:48:18;;;;;;;36.88;15.48;;;;;;;-6.19;55.99;102763.22;5032019;28;20091;-53
2022/12/03 08:50:44;;;;;;;33.88;15.15;;;;;;;-6.16;55.51;102752.03;5033760;28;20396;-55
2022/12/03 08:53:12;;;;;;;32.55;15.05;;;;;;;-6.25;55.75;102763.03;5032162;28;20121;-54
2022/12/03 08:55:44;;;;;;;32.25;13.93;;;;;;;-6.16;55.58;102778.13;5049384;28;20049;-53
2022/12/03 08:58:37;;;;;;;34.25;14.27;;;;;;;-6.21;55.85;102763.19;5052256;28;20057;-55
2022/12/03 09:01:19;;;;;;;35.00;15.70;;;;;;;-6.49;55.79;102762.19;5051223;28;20136;-56
2022/12/03 09:03:53;;;;;;;24.90;10.15;;;;;;;-6.68;56.12;102749.28;5051886;28;20456;-55
2022/12/03 09:06:19;;;;;;;34.38;14.65;;;;;;;-6.78;56.63;102767.16;5046989;28;20032;-56
2022/12/03 09:08:44;;;;;;;34.38;14.38;;;;;;;-6.67;56.15;102764.09;5032677;28;20025;-54
2022/12/03 09:11:10;;;;;;;26.98;12.48;;;;;;;-6.72;57.11;102768.25;5051724;28;20029;-54
2022/12/03 09:13:35;;;;;;;36.63;14.52;;;;;;;-6.72;56.65;102760.44;5043792;28;20045;-56
2022/12/03 09:16:00;;;;;;;35.58;14.88;;;;;;;-6.69;57.62;102766.63;5043697;28;20051;-57
2022/12/03 09:18:26;;;;;;;39.50;15.80;;;;;;;-6.62;57.44;102752.13;5032323;28;20029;-54
2022/12/03 09:20:51;;;;;;;35.90;14.77;;;;;;;-6.49;56.95;102756.97;5048942;28;20527;-56
2022/12/03 09:23:17;;;;;;;31.80;13.93;;;;;;;-6.47;57.07;102757.00;5049649;28;20033;-54
2022/12/03 09:25:42;;;;;;;34.72;14.20;;;;;;;-6.35;56.15;102767.00;5043676;28;20033;-53
2022/12/03 09:28:07;;;;;;;38.85;14.70;;;;;;;-6.56;56.88;102744.53;5042796;28;20129;-57
2022/12/03 09:30:33;;;;;;;38.50;15.70;;;;;;;-6.49;57.08;102762.19;5036988;28;20034;-65
2022/12/03 09:32:59;;;;;;;34.33;14.27;;;;;;;-6.49;57.15;102756.97;5033757;28;20037;-53
2022/12/03 09:35:25;;;;;;;31.55;13.82;;;;;;;-6.63;58.14;102751.25;5040471;28;20167;-52
2022/12/03 09:37:51;;;;;;;33.08;14.80;;;;;;;-6.28;56.61;102758.56;5047843;28;20090;-54
2022/12/03 09:40:18;;;;;;;34.53;14.07;;;;;;;-6.32;57.33;102756.69;5051157;28;20431;-57
2022/12/03 09:42:44;;;;;;;36.38;14.85;;;;;;;-6.37;56.86;102756.53;5048578;28;20041;-55
2022/12/03 09:45:13;;;;;;;39.35;15.38;;;;;;;-6.40;57.90;102747.72;5031719;28;20435;-57
2022/12/03 09:47:57;;;;;;;39.25;15.35;;;;;;;-6.35;57.80;102735.72;5038636;28;20468;-56
2022/12/03 09:50:25;;;;;;;32.88;14.23;;;;;;;-6.20;58.85;102759.75;5049853;28;20041;-55
2022/12/03 09:52:53;;;;;;;34.13;13.77;;;;;;;-5.96;57.28;102755.31;5034388;28;20491;-56
2022/12/03 09:55:25;;;;;;;34.03;13.07;;;;;;;-5.83;56.64;102747.09;5046301;28;20028;-54
2022/12/03 09:57:52;;;;;;;34.53;14.60;;;;;;;-5.98;57.43;102757.88;5050879;28;20077;-54
2022/12/03 10:00:26;;;;;;;34.05;14.45;;;;;;;-5.97;57.47;102741.41;5045331;28;20033;-53
2022/12/03 10:02:55;;;;;;;36.55;15.27;;;;;;;-6.22;58.03;102706.66;5035224;28;20033;-56
2022/12/03 10:05:21;;;;;;;40.45;14.68;;;;;;;-5.86;56.98;102752.22;5040736;28;20116;-53
2022/12/03 10:07:51;;;;;;;36.22;14.98;;;;;;;-5.92;58.05;102742.44;5054424;28;20037;-56
2022/12/03 10:10:22;;;;;;;42.60;15.45;;;;;;;-5.95;57.90;102744.94;5053590;28;20037;-53
2022/12/03 10:12:49;;;;;;;33.67;15.40;;;;;;;-5.91;57.14;102743.31;5034391;28;20030;-56
2022/12/03 10:15:18;;;;;;;33.20;16.17;;;;;;;-6.00;58.00;102754.34;5034807;28;20041;-55
2022/12/03 10:17:46;;;;;;;33.35;15.23;;;;;;;-6.07;58.19;102753.25;5040605;28;20061;-55
2022/12/03 10:20:14;;;;;;;32.95;13.05;;;;;;;-6.01;58.22;102751.69;5046134;28;20039;-56
2022/12/03 10:22:40;;;;;;;32.45;13.60;;;;;;;-5.98;58.29;102746.56;5034565;28;20474;-56
2022/12/03 10:25:10;;;;;;;38.53;16.05;;;;;;;-6.10;58.09;102720.94;5035666;28;20030;-52
2022/12/03 10:27:36;;;;;;;34.45;15.70;;;;;;;-6.13;58.43;102747.84;5034727;28;20029;-59
2022/12/03 10:30:05;;;;;;;33.95;14.07;;;;;;;-5.99;57.71;102750.91;5033479;28;20518;-55
2022/12/03 10:32:39;;;;;;;36.97;15.50;;;;;;;-6.13;58.90;102749.53;5033987;28;20353;-54
2022/12/03 10:35:08;;;;;;;41.90;16.20;;;;;;;-6.34;59.85;102732.28;5050040;28;20038;-54
2022/12/03 10:37:34;;;;;;;30.27;13.25;;;;;;;-6.22;59.88;102743.16;5047956;28;20525;-54
2022/12/03 10:40:07;;;;;;;35.80;15.27;;;;;;;-6.04;59.35;102752.47;5032934;28;20038;-52
2022/12/03 10:42:38;;;;;;;36.58;15.07;;;;;;;-5.97;59.11;102727.44;5050476;28;20039;-57
2022/12/03 10:45:21;;;;;;;31.15;13.73;;;;;;;-5.75;58.80;102749.97;5034772;28;20487;-56
2022/12/03 10:48:05;;;;;;;33.35;14.40;;;;;;;-5.49;58.39;102743.00;5033015;28;20060;-54
2022/12/03 10:50:32;;;;;;;30.02;12.90;;;;;;;-5.47;57.67;102749.16;5049622;28;20056;-54
2022/12/03 10:52:58;;;;;;;31.60;11.88;;;;;;;-5.70;58.59;102743.19;5043779;28;20487;-59
2022/12/03 10:55:23;;;;;;;39.00;16.23;;;;;;;-5.89;59.54;102728.63;5050055;28;20164;-56
2022/12/03 10:57:49;;;;;;;37.85;14.95;;;;;;;-5.73;58.76;102748.31;5051172;28;20030;-57
2022/12/03 11:00:17;;;;;;;39.47;15.55;;;;;;;-5.73;59.24;102750.91;5034494;28;20072;-59
2022/12/03 11:02:43;;;;;;;36.20;14.95;;;;;;;-5.70;58.62;102752.72;5033561;28;20094;-57
2022/12/03 11:05:15;;;;;;;38.28;16.20;;;;;;;-6.01;59.79;102715.16;5034000;28;20029;-56
2022/12/03 11:07:42;;;;;;;37.78;16.80;;;;;;;-5.80;59.33;102757.63;5034148;28;20064;-54
2022/12/03 11:10:14;;;;;;;38.00;17.52;;;;;;;-5.77;59.41;102746.44;5038102;28;20025;-61
2022/12/03 11:12:40;;;;;;;42.63;16.42;;;;;;;-5.77;59.04;102749.91;5053411;28;20048;-58
2022/12/03 11:15:13;;;;;;;34.42;15.63;;;;;;;-5.76;60.11;102749.06;5054174;28;20032;-54
2022/12/03 11:17:41;;;;;;;36.60;15.15;;;;;;;-5.65;59.53;102753.78;5053778;28;20090;-58
2022/12/03 11:20:30;;;;;;;37.15;16.98;;;;;;;-5.56;59.65;102754.09;5054362;28;20040;-56
2022/12/03 11:22:57;;;;;;;34.30;15.60;;;;;;;-5.50;59.01;102743.84;5052916;28;20114;-56
2022/12/03 11:25:25;;;;;;;37.28;15.95;;;;;;;-5.50;59.33;102754.28;5045577;28;20029;-55
2022/12/03 11:28:09;;;;;;;33.13;13.93;;;;;;;-5.50;59.00;102750.81;5033168;28;20041;-61
2022/12/03 11:30:50;;;;;;;46.00;16.88;;;;;;;-5.75;59.47;102749.97;5049426;28;20025;-51
2022/12/03 11:33:25;;;;;;;39.55;15.75;;;;;;;-5.85;60.44;102745.25;5033761;28;20038;-54